sensor_id;sensor_type;location;lat;lon;timestamp;P1;durP1;ratioP1;P2;durP2;ratioP2
7173;SDS011;3628;48.654;8.932;2023-01-15T00:00:57;0.47;;;0.30;;
7173;SDS011;3628;48.654;8.932;2023-01-15T00:03:23;0.73;;;0.70;;
7173;SDS011;3628;48.654;8.932;2023-01-15T00:05:48;1.13;;;0.43;;
7173;SDS011;3628;48.654;8.932;2023-01-15T00:08:14;0.30;;;0.20;;
7173;SDS011;3628;48.654;8.932;2023-01-15T00:10:39;0.43;;;0.30;;
7173;SDS011;3628;48.654;8.932;2023-01-15T00:13:05;0.23;;;0.20;;
7173;SDS011;3628;48.654;8.932;2023-01-15T00:15:30;0.67;;;0.43;;
7173;SDS011;3628;48.654;8.932;2023-01-15T00:17:56;0.47;;;0.40;;
7173;SDS011;3628;48.654;8.932;2023-01-15T00:20:22;0.40;;;0.30;;
7173;SDS011;3628;48.654;8.932;2023-01-15T00:22:47;0.87;;;0.33;;
7173;SDS011;3628;48.654;8.932;2023-01-15T00:25:13;0.47;;;0.20;;
7173;SDS011;3628;48.654;8.932;2023-01-15T00:27:57;0.57;;;0.20;;
7173;SDS011;3628;48.654;8.932;2023-01-15T00:30:22;0.33;;;0.20;;
7173;SDS011;3628;48.654;8.932;2023-01-15T00:32:48;0.10;;;0.10;;
7173;SDS011;3628;48.654;8.932;2023-01-15T00:35:19;0.17;;;0.10;;
7173;SDS011;3628;48.654;8.932;2023-01-15T00:37:46;0.30;;;0.30;;
7173;SDS011;3628;48.654;8.932;2023-01-15T00:40:13;0.23;;;0.20;;
7173;SDS011;3628;48.654;8.932;2023-01-15T00:42:40;0.33;;;0.13;;
7173;SDS011;3628;48.654;8.932;2023-01-15T00:45:06;0.97;;;0.10;;
7173;SDS011;3628;48.654;8.932;2023-01-15T00:47:40;0.80;;;0.20;;
7173;SDS011;3628;48.654;8.932;2023-01-15T00:50:11;0.93;;;0.30;;
7173;SDS011;3628;48.654;8.932;2023-01-15T00:52:38;0.93;;;0.17;;
7173;SDS011;3628;48.654;8.932;2023-01-15T00:55:05;0.20;;;0.17;;
7173;SDS011;3628;48.654;8.932;2023-01-15T00:57:31;0.50;;;0.20;;
7173;SDS011;3628;48.654;8.932;2023-01-15T00:59:57;1.10;;;0.40;;
7173;SDS011;3628;48.654;8.932;2023-01-15T01:02:23;0.20;;;0.20;;
7173;SDS011;3628;48.654;8.932;2023-01-15T01:04:48;0.10;;;0.10;;
7173;SDS011;3628;48.654;8.932;2023-01-15T01:07:14;0.10;;;0.10;;
7173;SDS011;3628;48.654;8.932;2023-01-15T01:09:40;0.23;;;0.13;;
7173;SDS011;3628;48.654;8.932;2023-01-15T01:12:06;0.10;;;0.10;;
7173;SDS011;3628;48.654;8.932;2023-01-15T01:14:32;1.27;;;0.20;;
7173;SDS011;3628;48.654;8.932;2023-01-15T01:16:57;0.00;;;0.00;;
7173;SDS011;3628;48.654;8.932;2023-01-15T01:19:23;0.20;;;0.20;;
7173;SDS011;3628;48.654;8.932;2023-01-15T01:21:50;0.40;;;0.10;;
7173;SDS011;3628;48.654;8.932;2023-01-15T01:24:17;0.10;;;0.10;;
7173;SDS011;3628;48.654;8.932;2023-01-15T01:26:45;0.10;;;0.10;;
7173;SDS011;3628;48.654;8.932;2023-01-15T01:29:11;1.07;;;0.40;;
7173;SDS011;3628;48.654;8.932;2023-01-15T01:31:38;0.10;;;0.10;;
7173;SDS011;3628;48.654;8.932;2023-01-15T01:34:03;0.30;;;0.20;;
7173;SDS011;3628;48.654;8.932;2023-01-15T01:36:30;0.10;;;0.10;;
7173;SDS011;3628;48.654;8.932;2023-01-15T01:38:58;0.30;;;0.20;;
7173;SDS011;3628;48.654;8.932;2023-01-15T01:41:25;0.00;;;0.00;;
7173;SDS011;3628;48.654;8.932;2023-01-15T01:43:59;0.20;;;0.10;;
7173;SDS011;3628;48.654;8.932;2023-01-15T01:46:30;0.20;;;0.10;;
7173;SDS011;3628;48.654;8.932;2023-01-15T01:51:29;0.17;;;0.17;;
7173;SDS011;3628;48.654;8.932;2023-01-15T01:54:01;0.10;;;0.10;;
7173;SDS011;3628;48.654;8.932;2023-01-15T01:56:27;0.30;;;0.30;;
7173;SDS011;3628;48.654;8.932;2023-01-15T01:58:54;0.63;;;0.10;;
7173;SDS011;3628;48.654;8.932;2023-01-15T02:01:21;0.00;;;0.00;;
7173;SDS011;3628;48.654;8.932;2023-01-15T02:03:49;0.57;;;0.20;;
7173;SDS011;3628;48.654;8.932;2023-01-15T02:06:15;1.70;;;0.50;;
7173;SDS011;3628;48.654;8.932;2023-01-15T02:08:40;0.50;;;0.40;;
7173;SDS011;3628;48.654;8.932;2023-01-15T02:11:06;0.17;;;0.17;;
7173;SDS011;3628;48.654;8.932;2023-01-15T02:13:42;0.43;;;0.17;;
7173;SDS011;3628;48.654;8.932;2023-01-15T02:16:14;0.00;;;0.00;;
7173;SDS011;3628;48.654;8.932;2023-01-15T02:18:49;0.17;;;0.00;;
7173;SDS011;3628;48.654;8.932;2023-01-15T02:21:26;0.20;;;0.10;;
7173;SDS011;3628;48.654;8.932;2023-01-15T02:24:21;0.40;;;0.10;;
7173;SDS011;3628;48.654;8.932;2023-01-15T02:26:59;0.00;;;0.00;;
7173;SDS011;3628;48.654;8.932;2023-01-15T02:32:05;0.00;;;0.00;;
7173;SDS011;3628;48.654;8.932;2023-01-15T02:34:35;0.87;;;0.10;;
7173;SDS011;3628;48.654;8.932;2023-01-15T02:37:09;0.10;;;0.03;;
7173;SDS011;3628;48.654;8.932;2023-01-15T02:39:42;1.03;;;0.10;;
7173;SDS011;3628;48.654;8.932;2023-01-15T02:42:11;0.10;;;0.00;;
7173;SDS011;3628;48.654;8.932;2023-01-15T02:44:40;0.00;;;0.00;;
7173;SDS011;3628;48.654;8.932;2023-01-15T02:47:11;0.30;;;0.00;;
7173;SDS011;3628;48.654;8.932;2023-01-15T02:49:37;0.40;;;0.10;;
7173;SDS011;3628;48.654;8.932;2023-01-15T02:52:24;0.40;;;0.13;;
7173;SDS011;3628;48.654;8.932;2023-01-15T02:54:55;0.00;;;0.00;;
7173;SDS011;3628;48.654;8.932;2023-01-15T02:57:27;0.10;;;0.10;;
7173;SDS011;3628;48.654;8.932;2023-01-15T02:59:57;1.40;;;0.07;;
7173;SDS011;3628;48.654;8.932;2023-01-15T03:02:31;0.00;;;0.00;;
7173;SDS011;3628;48.654;8.932;2023-01-15T03:05:23;0.10;;;0.10;;
7173;SDS011;3628;48.654;8.932;2023-01-15T03:07:55;0.20;;;0.10;;
7173;SDS011;3628;48.654;8.932;2023-01-15T03:10:27;0.00;;;0.00;;
7173;SDS011;3628;48.654;8.932;2023-01-15T03:13:20;0.60;;;0.10;;
7173;SDS011;3628;48.654;8.932;2023-01-15T03:16:00;0.00;;;0.00;;
7173;SDS011;3628;48.654;8.932;2023-01-15T03:18:55;0.17;;;0.10;;
7173;SDS011;3628;48.654;8.932;2023-01-15T03:21:39;0.30;;;0.10;;
7173;SDS011;3628;48.654;8.932;2023-01-15T03:24:32;0.30;;;0.10;;
7173;SDS011;3628;48.654;8.932;2023-01-15T03:27:07;0.07;;;0.07;;
7173;SDS011;3628;48.654;8.932;2023-01-15T03:29:35;0.20;;;0.10;;
7173;SDS011;3628;48.654;8.932;2023-01-15T03:32:03;0.10;;;0.10;;
7173;SDS011;3628;48.654;8.932;2023-01-15T03:34:36;0.30;;;0.00;;
7173;SDS011;3628;48.654;8.932;2023-01-15T03:37:11;0.00;;;0.00;;
7173;SDS011;3628;48.654;8.932;2023-01-15T03:39:37;0.10;;;0.10;;
7173;SDS011;3628;48.654;8.932;2023-01-15T03:45:02;0.00;;;0.00;;
7173;SDS011;3628;48.654;8.932;2023-01-15T03:53:22;0.00;;;0.00;;
7173;SDS011;3628;48.654;8.932;2023-01-15T03:56:05;0.00;;;0.00;;
7173;SDS011;3628;48.654;8.932;2023-01-15T03:58:44;0.00;;;0.00;;
7173;SDS011;3628;48.654;8.932;2023-01-15T04:01:11;0.00;;;0.00;;
7173;SDS011;3628;48.654;8.932;2023-01-15T04:03:40;1.23;;;0.10;;
7173;SDS011;3628;48.654;8.932;2023-01-15T04:06:06;0.10;;;0.10;;
7173;SDS011;3628;48.654;8.932;2023-01-15T04:08:36;0.27;;;0.10;;
7173;SDS011;3628;48.654;8.932;2023-01-15T04:11:04;0.40;;;0.00;;
7173;SDS011;3628;48.654;8.932;2023-01-15T04:13:30;0.00;;;0.00;;
7173;SDS011;3628;48.654;8.932;2023-01-15T04:15:56;0.00;;;0.00;;
7173;SDS011;3628;48.654;8.932;2023-01-15T04:18:22;0.00;;;0.00;;
7173;SDS011;3628;48.654;8.932;2023-01-15T04:20:48;0.00;;;0.00;;
7173;SDS011;3628;48.654;8.932;2023-01-15T04:23:14;0.00;;;0.00;;
7173;SDS011;3628;48.654;8.932;2023-01-15T04:25:39;0.00;;;0.00;;
7173;SDS011;3628;48.654;8.932;2023-01-15T04:28:05;0.00;;;0.00;;
7173;SDS011;3628;48.654;8.932;2023-01-15T04:30:32;0.47;;;0.00;;
7173;SDS011;3628;48.654;8.932;2023-01-15T04:32:58;0.00;;;0.00;;
7173;SDS011;3628;48.654;8.932;2023-01-15T04:35:24;0.10;;;0.10;;
7173;SDS011;3628;48.654;8.932;2023-01-15T04:37:54;0.00;;;0.00;;
7173;SDS011;3628;48.654;8.932;2023-01-15T04:40:21;0.00;;;0.00;;
7173;SDS011;3628;48.654;8.932;2023-01-15T04:43:05;0.10;;;0.10;;
7173;SDS011;3628;48.654;8.932;2023-01-15T04:45:51;0.10;;;0.10;;
7173;SDS011;3628;48.654;8.932;2023-01-15T04:48:16;0.00;;;0.00;;
7173;SDS011;3628;48.654;8.932;2023-01-15T04:50:42;0.83;;;0.00;;
7173;SDS011;3628;48.654;8.932;2023-01-15T04:53:07;0.00;;;0.00;;
7173;SDS011;3628;48.654;8.932;2023-01-15T04:55:33;0.10;;;0.00;;
7173;SDS011;3628;48.654;8.932;2023-01-15T04:57:58;0.17;;;0.03;;
7173;SDS011;3628;48.654;8.932;2023-01-15T05:00:24;0.00;;;0.00;;
7173;SDS011;3628;48.654;8.932;2023-01-15T05:02:49;0.20;;;0.00;;
7173;SDS011;3628;48.654;8.932;2023-01-15T05:05:15;0.00;;;0.00;;
7173;SDS011;3628;48.654;8.932;2023-01-15T05:07:41;0.10;;;0.10;;
7173;SDS011;3628;48.654;8.932;2023-01-15T05:10:06;0.00;;;0.00;;
7173;SDS011;3628;48.654;8.932;2023-01-15T05:12:32;0.00;;;0.00;;
7173;SDS011;3628;48.654;8.932;2023-01-15T05:14:58;0.10;;;0.00;;
7173;SDS011;3628;48.654;8.932;2023-01-15T05:17:23;0.37;;;0.13;;
7173;SDS011;3628;48.654;8.932;2023-01-15T05:19:49;0.07;;;0.07;;
7173;SDS011;3628;48.654;8.932;2023-01-15T05:22:14;0.00;;;0.00;;
7173;SDS011;3628;48.654;8.932;2023-01-15T05:24:40;0.20;;;0.10;;
7173;SDS011;3628;48.654;8.932;2023-01-15T05:27:06;0.07;;;0.00;;
7173;SDS011;3628;48.654;8.932;2023-01-15T05:29:31;0.90;;;0.20;;
7173;SDS011;3628;48.654;8.932;2023-01-15T05:31:57;0.00;;;0.00;;
7173;SDS011;3628;48.654;8.932;2023-01-15T05:34:22;0.33;;;0.07;;
7173;SDS011;3628;48.654;8.932;2023-01-15T05:36:48;0.10;;;0.00;;
7173;SDS011;3628;48.654;8.932;2023-01-15T05:39:13;0.10;;;0.00;;
7173;SDS011;3628;48.654;8.932;2023-01-15T05:41:39;0.00;;;0.00;;
7173;SDS011;3628;48.654;8.932;2023-01-15T05:44:34;0.00;;;0.00;;
7173;SDS011;3628;48.654;8.932;2023-01-15T05:47:00;0.07;;;0.00;;
7173;SDS011;3628;48.654;8.932;2023-01-15T05:49:27;0.10;;;0.00;;
7173;SDS011;3628;48.654;8.932;2023-01-15T05:51:55;0.40;;;0.00;;
7173;SDS011;3628;48.654;8.932;2023-01-15T05:54:22;0.00;;;0.00;;
7173;SDS011;3628;48.654;8.932;2023-01-15T05:56:49;0.00;;;0.00;;
7173;SDS011;3628;48.654;8.932;2023-01-15T05:59:15;0.47;;;0.03;;
7173;SDS011;3628;48.654;8.932;2023-01-15T06:01:42;0.00;;;0.00;;
7173;SDS011;3628;48.654;8.932;2023-01-15T06:04:09;0.10;;;0.00;;
7173;SDS011;3628;48.654;8.932;2023-01-15T06:06:38;0.00;;;0.00;;
7173;SDS011;3628;48.654;8.932;2023-01-15T06:09:04;0.00;;;0.00;;
7173;SDS011;3628;48.654;8.932;2023-01-15T06:11:29;0.00;;;0.00;;
7173;SDS011;3628;48.654;8.932;2023-01-15T06:13:55;0.00;;;0.00;;
7173;SDS011;3628;48.654;8.932;2023-01-15T06:16:21;0.00;;;0.00;;
7173;SDS011;3628;48.654;8.932;2023-01-15T06:18:46;0.00;;;0.00;;
7173;SDS011;3628;48.654;8.932;2023-01-15T06:21:12;0.00;;;0.00;;
7173;SDS011;3628;48.654;8.932;2023-01-15T06:23:39;0.40;;;0.00;;
7173;SDS011;3628;48.654;8.932;2023-01-15T06:26:06;0.03;;;0.00;;
7173;SDS011;3628;48.654;8.932;2023-01-15T06:28:34;0.00;;;0.00;;
7173;SDS011;3628;48.654;8.932;2023-01-15T06:31:03;0.00;;;0.00;;
7173;SDS011;3628;48.654;8.932;2023-01-15T06:33:32;0.00;;;0.00;;
7173;SDS011;3628;48.654;8.932;2023-01-15T06:36:01;0.00;;;0.00;;
7173;SDS011;3628;48.654;8.932;2023-01-15T06:38:28;0.13;;;0.10;;
7173;SDS011;3628;48.654;8.932;2023-01-15T06:40:53;0.00;;;0.00;;
7173;SDS011;3628;48.654;8.932;2023-01-15T06:43:21;0.00;;;0.00;;
7173;SDS011;3628;48.654;8.932;2023-01-15T06:46:10;0.20;;;0.10;;
7173;SDS011;3628;48.654;8.932;2023-01-15T06:48:55;1.57;;;1.47;;
7173;SDS011;3628;48.654;8.932;2023-01-15T06:51:20;0.47;;;0.20;;
7173;SDS011;3628;48.654;8.932;2023-01-15T06:53:46;0.00;;;0.00;;
7173;SDS011;3628;48.654;8.932;2023-01-15T06:56:12;0.07;;;0.00;;
7173;SDS011;3628;48.654;8.932;2023-01-15T06:58:39;0.00;;;0.00;;
7173;SDS011;3628;48.654;8.932;2023-01-15T07:01:06;0.10;;;0.10;;
7173;SDS011;3628;48.654;8.932;2023-01-15T07:03:35;0.00;;;0.00;;
7173;SDS011;3628;48.654;8.932;2023-01-15T07:06:07;0.00;;;0.00;;
7173;SDS011;3628;48.654;8.932;2023-01-15T07:08:37;0.00;;;0.00;;
7173;SDS011;3628;48.654;8.932;2023-01-15T07:11:04;0.00;;;0.00;;
7173;SDS011;3628;48.654;8.932;2023-01-15T07:13:31;0.00;;;0.00;;
7173;SDS011;3628;48.654;8.932;2023-01-15T07:16:00;0.00;;;0.00;;
7173;SDS011;3628;48.654;8.932;2023-01-15T07:18:27;0.13;;;0.00;;
7173;SDS011;3628;48.654;8.932;2023-01-15T07:20:57;0.00;;;0.00;;
7173;SDS011;3628;48.654;8.932;2023-01-15T07:23:24;0.10;;;0.00;;
7173;SDS011;3628;48.654;8.932;2023-01-15T07:25:51;0.30;;;0.00;;
7173;SDS011;3628;48.654;8.932;2023-01-15T07:28:18;0.00;;;0.00;;
7173;SDS011;3628;48.654;8.932;2023-01-15T07:30:44;0.00;;;0.00;;
7173;SDS011;3628;48.654;8.932;2023-01-15T07:33:09;0.00;;;0.00;;
7173;SDS011;3628;48.654;8.932;2023-01-15T07:35:36;0.00;;;0.00;;
7173;SDS011;3628;48.654;8.932;2023-01-15T07:38:02;1.20;;;1.10;;
7173;SDS011;3628;48.654;8.932;2023-01-15T07:40:27;0.07;;;0.00;;
7173;SDS011;3628;48.654;8.932;2023-01-15T07:42:53;0.30;;;0.10;;
7173;SDS011;3628;48.654;8.932;2023-01-15T07:45:41;0.00;;;0.00;;
7173;SDS011;3628;48.654;8.932;2023-01-15T07:48:26;0.00;;;0.00;;
7173;SDS011;3628;48.654;8.932;2023-01-15T07:51:10;0.23;;;0.10;;
7173;SDS011;3628;48.654;8.932;2023-01-15T07:53:36;0.93;;;0.80;;
7173;SDS011;3628;48.654;8.932;2023-01-15T07:56:01;1.37;;;1.00;;
7173;SDS011;3628;48.654;8.932;2023-01-15T07:58:27;0.30;;;0.30;;
7173;SDS011;3628;48.654;8.932;2023-01-15T08:00:53;0.10;;;0.10;;
7173;SDS011;3628;48.654;8.932;2023-01-15T08:03:18;0.10;;;0.10;;
7173;SDS011;3628;48.654;8.932;2023-01-15T08:05:44;0.97;;;0.00;;
7173;SDS011;3628;48.654;8.932;2023-01-15T08:08:15;0.00;;;0.00;;
7173;SDS011;3628;48.654;8.932;2023-01-15T08:10:42;0.63;;;0.10;;
7173;SDS011;3628;48.654;8.932;2023-01-15T08:13:27;0.03;;;0.03;;
7173;SDS011;3628;48.654;8.932;2023-01-15T08:16:11;0.10;;;0.10;;
7173;SDS011;3628;48.654;8.932;2023-01-15T08:18:37;0.30;;;0.10;;
7173;SDS011;3628;48.654;8.932;2023-01-15T08:21:03;0.67;;;0.10;;
7173;SDS011;3628;48.654;8.932;2023-01-15T08:23:29;0.10;;;0.10;;
7173;SDS011;3628;48.654;8.932;2023-01-15T08:25:58;0.20;;;0.20;;
7173;SDS011;3628;48.654;8.932;2023-01-15T08:28:24;0.10;;;0.10;;
7173;SDS011;3628;48.654;8.932;2023-01-15T08:30:50;0.00;;;0.00;;
7173;SDS011;3628;48.654;8.932;2023-01-15T08:33:15;0.20;;;0.13;;
7173;SDS011;3628;48.654;8.932;2023-01-15T08:35:41;0.13;;;0.10;;
7173;SDS011;3628;48.654;8.932;2023-01-15T08:38:06;0.10;;;0.10;;
7173;SDS011;3628;48.654;8.932;2023-01-15T08:40:33;0.00;;;0.00;;
7173;SDS011;3628;48.654;8.932;2023-01-15T08:43:00;0.30;;;0.30;;
7173;SDS011;3628;48.654;8.932;2023-01-15T08:45:26;0.20;;;0.20;;
7173;SDS011;3628;48.654;8.932;2023-01-15T08:47:54;0.20;;;0.10;;
7173;SDS011;3628;48.654;8.932;2023-01-15T08:50:24;0.40;;;0.10;;
7173;SDS011;3628;48.654;8.932;2023-01-15T08:52:49;0.10;;;0.10;;
7173;SDS011;3628;48.654;8.932;2023-01-15T08:55:15;0.20;;;0.10;;
7173;SDS011;3628;48.654;8.932;2023-01-15T08:57:41;0.40;;;0.30;;
7173;SDS011;3628;48.654;8.932;2023-01-15T09:00:08;0.30;;;0.30;;
7173;SDS011;3628;48.654;8.932;2023-01-15T09:02:34;0.13;;;0.13;;
7173;SDS011;3628;48.654;8.932;2023-01-15T09:05:00;0.20;;;0.20;;
7173;SDS011;3628;48.654;8.932;2023-01-15T09:07:25;0.23;;;0.17;;
7173;SDS011;3628;48.654;8.932;2023-01-15T09:09:51;0.13;;;0.13;;
7173;SDS011;3628;48.654;8.932;2023-01-15T09:12:16;0.10;;;0.10;;
7173;SDS011;3628;48.654;8.932;2023-01-15T09:14:42;0.00;;;0.00;;
7173;SDS011;3628;48.654;8.932;2023-01-15T09:17:07;0.10;;;0.00;;
7173;SDS011;3628;48.654;8.932;2023-01-15T09:19:33;0.10;;;0.10;;
7173;SDS011;3628;48.654;8.932;2023-01-15T09:21:58;0.10;;;0.10;;
7173;SDS011;3628;48.654;8.932;2023-01-15T09:24:24;0.10;;;0.10;;
7173;SDS011;3628;48.654;8.932;2023-01-15T09:26:49;0.10;;;0.10;;
7173;SDS011;3628;48.654;8.932;2023-01-15T09:29:17;0.20;;;0.20;;
7173;SDS011;3628;48.654;8.932;2023-01-15T09:31:42;0.30;;;0.20;;
7173;SDS011;3628;48.654;8.932;2023-01-15T09:34:08;2.70;;;1.67;;
7173;SDS011;3628;48.654;8.932;2023-01-15T09:36:34;0.60;;;0.50;;
7173;SDS011;3628;48.654;8.932;2023-01-15T09:39:00;0.67;;;0.50;;
7173;SDS011;3628;48.654;8.932;2023-01-15T09:52:21;0.30;;;0.30;;
7173;SDS011;3628;48.654;8.932;2023-01-15T09:55:02;0.10;;;0.00;;
7173;SDS011;3628;48.654;8.932;2023-01-15T09:57:29;0.00;;;0.00;;
7173;SDS011;3628;48.654;8.932;2023-01-15T09:59:56;1.23;;;0.70;;
7173;SDS011;3628;48.654;8.932;2023-01-15T10:05:29;0.17;;;0.17;;
7173;SDS011;3628;48.654;8.932;2023-01-15T10:10:41;0.10;;;0.10;;
7173;SDS011;3628;48.654;8.932;2023-01-15T10:13:59;1.23;;;0.50;;
7173;SDS011;3628;48.654;8.932;2023-01-15T10:16:26;1.00;;;0.60;;
7173;SDS011;3628;48.654;8.932;2023-01-15T10:18:55;0.30;;;0.30;;
7173;SDS011;3628;48.654;8.932;2023-01-15T10:24:31;0.80;;;0.40;;
7173;SDS011;3628;48.654;8.932;2023-01-15T10:27:24;0.20;;;0.20;;
7173;SDS011;3628;48.654;8.932;2023-01-15T10:29:54;0.43;;;0.30;;
7173;SDS011;3628;48.654;8.932;2023-01-15T10:32:42;2.90;;;1.17;;
7173;SDS011;3628;48.654;8.932;2023-01-15T10:35:18;3.77;;;0.70;;
7173;SDS011;3628;48.654;8.932;2023-01-15T10:38:00;3.07;;;1.30;;
7173;SDS011;3628;48.654;8.932;2023-01-15T10:46:21;0.10;;;0.10;;
7173;SDS011;3628;48.654;8.932;2023-01-15T10:48:53;0.13;;;0.13;;
7173;SDS011;3628;48.654;8.932;2023-01-15T10:51:22;0.50;;;0.20;;
7173;SDS011;3628;48.654;8.932;2023-01-15T10:53:59;2.27;;;1.10;;
7173;SDS011;3628;48.654;8.932;2023-01-15T10:59:03;1.40;;;0.77;;
7173;SDS011;3628;48.654;8.932;2023-01-15T11:01:39;1.40;;;0.73;;
7173;SDS011;3628;48.654;8.932;2023-01-15T11:04:07;4.33;;;1.57;;
7173;SDS011;3628;48.654;8.932;2023-01-15T11:06:34;2.30;;;0.90;;
7173;SDS011;3628;48.654;8.932;2023-01-15T11:08:59;3.80;;;1.53;;
7173;SDS011;3628;48.654;8.932;2023-01-15T11:11:28;1.17;;;0.60;;
7173;SDS011;3628;48.654;8.932;2023-01-15T11:14:36;1.13;;;0.10;;
7173;SDS011;3628;48.654;8.932;2023-01-15T11:17:23;0.00;;;0.00;;
7173;SDS011;3628;48.654;8.932;2023-01-15T11:20:13;0.07;;;0.07;;
7173;SDS011;3628;48.654;8.932;2023-01-15T11:22:40;0.27;;;0.10;;
7173;SDS011;3628;48.654;8.932;2023-01-15T11:25:06;0.03;;;0.00;;
7173;SDS011;3628;48.654;8.932;2023-01-15T11:27:34;0.00;;;0.00;;
7173;SDS011;3628;48.654;8.932;2023-01-15T11:30:02;0.10;;;0.10;;
7173;SDS011;3628;48.654;8.932;2023-01-15T11:32:30;1.70;;;0.70;;
7173;SDS011;3628;48.654;8.932;2023-01-15T11:35:19;0.53;;;0.47;;
7173;SDS011;3628;48.654;8.932;2023-01-15T11:37:43;0.30;;;0.20;;
7173;SDS011;3628;48.654;8.932;2023-01-15T11:40:15;0.20;;;0.10;;
7173;SDS011;3628;48.654;8.932;2023-01-15T11:42:45;0.10;;;0.00;;
7173;SDS011;3628;48.654;8.932;2023-01-15T11:45:30;0.20;;;0.20;;
7173;SDS011;3628;48.654;8.932;2023-01-15T11:48:15;0.10;;;0.00;;
7173;SDS011;3628;48.654;8.932;2023-01-15T11:53:47;0.33;;;0.10;;
7173;SDS011;3628;48.654;8.932;2023-01-15T11:56:18;0.10;;;0.10;;
7173;SDS011;3628;48.654;8.932;2023-01-15T11:58:49;0.10;;;0.10;;
7173;SDS011;3628;48.654;8.932;2023-01-15T12:01:22;0.10;;;0.10;;
7173;SDS011;3628;48.654;8.932;2023-01-15T12:03:55;0.20;;;0.20;;
7173;SDS011;3628;48.654;8.932;2023-01-15T12:06:22;1.43;;;0.40;;
7173;SDS011;3628;48.654;8.932;2023-01-15T12:09:11;0.50;;;0.30;;
7173;SDS011;3628;48.654;8.932;2023-01-15T12:14:58;0.10;;;0.10;;
7173;SDS011;3628;48.654;8.932;2023-01-15T12:18:02;1.90;;;0.20;;
7173;SDS011;3628;48.654;8.932;2023-01-15T12:26:26;0.20;;;0.20;;
7173;SDS011;3628;48.654;8.932;2023-01-15T12:29:23;0.20;;;0.20;;
7173;SDS011;3628;48.654;8.932;2023-01-15T12:31:57;0.40;;;0.40;;
7173;SDS011;3628;48.654;8.932;2023-01-15T12:34:49;0.10;;;0.10;;
7173;SDS011;3628;48.654;8.932;2023-01-15T12:37:27;0.60;;;0.50;;
7173;SDS011;3628;48.654;8.932;2023-01-15T12:39:57;0.83;;;0.50;;
7173;SDS011;3628;48.654;8.932;2023-01-15T12:42:32;2.03;;;0.37;;
7173;SDS011;3628;48.654;8.932;2023-01-15T12:45:20;0.37;;;0.10;;
7173;SDS011;3628;48.654;8.932;2023-01-15T12:48:11;0.77;;;0.30;;
7173;SDS011;3628;48.654;8.932;2023-01-15T12:50:54;0.40;;;0.40;;
7173;SDS011;3628;48.654;8.932;2023-01-15T13:04:20;0.30;;;0.23;;
7173;SDS011;3628;48.654;8.932;2023-01-15T13:07:10;0.30;;;0.30;;
7173;SDS011;3628;48.654;8.932;2023-01-15T13:10:06;0.40;;;0.33;;
7173;SDS011;3628;48.654;8.932;2023-01-15T13:12:39;0.30;;;0.30;;
7173;SDS011;3628;48.654;8.932;2023-01-15T13:15:04;0.40;;;0.30;;
7173;SDS011;3628;48.654;8.932;2023-01-15T13:20:36;0.40;;;0.30;;
7173;SDS011;3628;48.654;8.932;2023-01-15T13:31:42;0.87;;;0.30;;
7173;SDS011;3628;48.654;8.932;2023-01-15T13:34:22;0.40;;;0.30;;
7173;SDS011;3628;48.654;8.932;2023-01-15T13:36:52;0.70;;;0.50;;
7173;SDS011;3628;48.654;8.932;2023-01-15T13:39:24;1.10;;;0.30;;
7173;SDS011;3628;48.654;8.932;2023-01-15T13:41:58;0.73;;;0.20;;
7173;SDS011;3628;48.654;8.932;2023-01-15T13:44:46;0.97;;;0.40;;
7173;SDS011;3628;48.654;8.932;2023-01-15T13:47:22;2.17;;;0.30;;
7173;SDS011;3628;48.654;8.932;2023-01-15T13:49:54;3.90;;;0.47;;
7173;SDS011;3628;48.654;8.932;2023-01-15T13:52:26;1.60;;;0.60;;
7173;SDS011;3628;48.654;8.932;2023-01-15T13:54:58;1.97;;;0.80;;
7173;SDS011;3628;48.654;8.932;2023-01-15T13:57:32;1.23;;;0.37;;
7173;SDS011;3628;48.654;8.932;2023-01-15T14:00:03;1.30;;;0.60;;
7173;SDS011;3628;48.654;8.932;2023-01-15T14:02:31;1.97;;;0.30;;
7173;SDS011;3628;48.654;8.932;2023-01-15T14:05:52;1.00;;;0.40;;
7173;SDS011;3628;48.654;8.932;2023-01-15T14:07:47;0.80;;;0.30;;
7173;SDS011;3628;48.654;8.932;2023-01-15T14:12:45;0.63;;;0.40;;
7173;SDS011;3628;48.654;8.932;2023-01-15T14:21:21;2.57;;;0.50;;
7173;SDS011;3628;48.654;8.932;2023-01-15T14:35:34;2.23;;;0.50;;
7173;SDS011;3628;48.654;8.932;2023-01-15T14:38:04;1.10;;;0.50;;
7173;SDS011;3628;48.654;8.932;2023-01-15T14:40:33;1.60;;;0.50;;
7173;SDS011;3628;48.654;8.932;2023-01-15T14:43:00;2.27;;;0.70;;
7173;SDS011;3628;48.654;8.932;2023-01-15T14:45:37;2.47;;;0.70;;
7173;SDS011;3628;48.654;8.932;2023-01-15T14:50:44;2.43;;;1.23;;
7173;SDS011;3628;48.654;8.932;2023-01-15T15:03:53;1.97;;;0.70;;
7173;SDS011;3628;48.654;8.932;2023-01-15T15:06:23;0.83;;;0.50;;
7173;SDS011;3628;48.654;8.932;2023-01-15T15:08:50;1.53;;;0.80;;
7173;SDS011;3628;48.654;8.932;2023-01-15T15:11:23;1.43;;;0.40;;
7173;SDS011;3628;48.654;8.932;2023-01-15T15:14:14;0.83;;;0.30;;
7173;SDS011;3628;48.654;8.932;2023-01-15T15:16:43;1.17;;;0.57;;
7173;SDS011;3628;48.654;8.932;2023-01-15T15:19:26;0.30;;;0.30;;
7173;SDS011;3628;48.654;8.932;2023-01-15T15:22:10;0.87;;;0.50;;
7173;SDS011;3628;48.654;8.932;2023-01-15T15:24:42;0.50;;;0.40;;
7173;SDS011;3628;48.654;8.932;2023-01-15T15:27:18;0.90;;;0.50;;
7173;SDS011;3628;48.654;8.932;2023-01-15T15:29:46;0.83;;;0.60;;
7173;SDS011;3628;48.654;8.932;2023-01-15T15:32:16;1.60;;;0.90;;
7173;SDS011;3628;48.654;8.932;2023-01-15T15:34:46;1.60;;;0.63;;
7173;SDS011;3628;48.654;8.932;2023-01-15T15:37:18;1.60;;;0.50;;
7173;SDS011;3628;48.654;8.932;2023-01-15T15:42:36;0.23;;;0.17;;
7173;SDS011;3628;48.654;8.932;2023-01-15T15:45:27;0.87;;;0.20;;
7173;SDS011;3628;48.654;8.932;2023-01-15T15:48:13;1.80;;;0.77;;
7173;SDS011;3628;48.654;8.932;2023-01-15T15:51:02;1.13;;;0.30;;
7173;SDS011;3628;48.654;8.932;2023-01-15T15:53:29;0.60;;;0.50;;
7173;SDS011;3628;48.654;8.932;2023-01-15T15:55:55;1.43;;;0.50;;
7173;SDS011;3628;48.654;8.932;2023-01-15T15:58:31;1.43;;;0.80;;
7173;SDS011;3628;48.654;8.932;2023-01-15T16:00:59;0.63;;;0.47;;
7173;SDS011;3628;48.654;8.932;2023-01-15T16:03:26;2.37;;;0.70;;
7173;SDS011;3628;48.654;8.932;2023-01-15T16:05:58;1.40;;;0.60;;
7173;SDS011;3628;48.654;8.932;2023-01-15T16:08:26;2.87;;;0.90;;
7173;SDS011;3628;48.654;8.932;2023-01-15T16:10:53;1.63;;;0.40;;
7173;SDS011;3628;48.654;8.932;2023-01-15T16:13:26;0.50;;;0.40;;
7173;SDS011;3628;48.654;8.932;2023-01-15T16:15:56;3.90;;;0.60;;
7173;SDS011;3628;48.654;8.932;2023-01-15T16:18:24;0.73;;;0.70;;
7173;SDS011;3628;48.654;8.932;2023-01-15T16:20:52;2.37;;;0.60;;
7173;SDS011;3628;48.654;8.932;2023-01-15T16:23:28;1.13;;;0.77;;
7173;SDS011;3628;48.654;8.932;2023-01-15T16:28:28;2.03;;;0.80;;
7173;SDS011;3628;48.654;8.932;2023-01-15T16:31:17;1.63;;;0.70;;
7173;SDS011;3628;48.654;8.932;2023-01-15T16:33:43;0.93;;;0.70;;
7173;SDS011;3628;48.654;8.932;2023-01-15T16:36:10;3.50;;;1.10;;
7173;SDS011;3628;48.654;8.932;2023-01-15T16:38:37;2.20;;;0.80;;
7173;SDS011;3628;48.654;8.932;2023-01-15T16:41:05;1.47;;;0.90;;
7173;SDS011;3628;48.654;8.932;2023-01-15T16:43:48;2.23;;;0.90;;
7173;SDS011;3628;48.654;8.932;2023-01-15T16:46:20;1.23;;;0.70;;
7173;SDS011;3628;48.654;8.932;2023-01-15T16:48:47;1.70;;;0.80;;
7173;SDS011;3628;48.654;8.932;2023-01-15T16:53:51;4.23;;;1.30;;
7173;SDS011;3628;48.654;8.932;2023-01-15T16:59:03;0.73;;;0.60;;
7173;SDS011;3628;48.654;8.932;2023-01-15T17:01:39;1.50;;;0.70;;
7173;SDS011;3628;48.654;8.932;2023-01-15T17:04:15;1.47;;;0.70;;
7173;SDS011;3628;48.654;8.932;2023-01-15T17:07:00;1.00;;;0.60;;
7173;SDS011;3628;48.654;8.932;2023-01-15T17:09:29;4.20;;;1.40;;
7173;SDS011;3628;48.654;8.932;2023-01-15T17:11:57;1.07;;;0.73;;
7173;SDS011;3628;48.654;8.932;2023-01-15T17:14:25;2.43;;;0.83;;
7173;SDS011;3628;48.654;8.932;2023-01-15T17:19:49;2.33;;;0.90;;
7173;SDS011;3628;48.654;8.932;2023-01-15T17:22:25;2.00;;;1.00;;
7173;SDS011;3628;48.654;8.932;2023-01-15T17:24:54;2.43;;;0.80;;
7173;SDS011;3628;48.654;8.932;2023-01-15T17:27:21;1.77;;;0.73;;
7173;SDS011;3628;48.654;8.932;2023-01-15T17:29:47;2.50;;;1.00;;
7173;SDS011;3628;48.654;8.932;2023-01-15T17:32:14;1.70;;;1.00;;
7173;SDS011;3628;48.654;8.932;2023-01-15T17:34:41;1.20;;;0.80;;
7173;SDS011;3628;48.654;8.932;2023-01-15T17:37:07;2.30;;;1.07;;
7173;SDS011;3628;48.654;8.932;2023-01-15T17:39:33;1.43;;;1.00;;
7173;SDS011;3628;48.654;8.932;2023-01-15T17:41:58;3.17;;;1.00;;